To NAV CANADA Home Page Login to a new session Search on AWWS site Disclaimer Vers la page française équivalente Tips FAQ What's new on the site To the Forecasts and Observations / NOTAM section To "File a Flight Plan" website Publications and other links Update of the User's profile FIC Telephone Numbers My Weather Data Folder Route Weather Data Regional Weather Data Local Weather Data To the Forecasts and Observations / NOTAM section
Request Generated 10/19/2018 at 16:15:32 UTC . Weather information available at that time is displayed.

METAR/TAF

TUKTOYAKTUK/JAMES GRUBEN/NT    

METAR CYUB 191600Z 12007KT 15SM FEW015 FEW090 M13/M14 A2994 RMK SC1AS1 SC TR AS TR SLP141=
METAR CYUB 191500Z 10006KT 15SM FEW090 M13/M15 A2996 RMK AC1 AC TR SLP147=
METAR CYUB 191400Z 09005KT 15SM SKC M13/M14 A2998 RMK SLP154=

TAF CYUB 191438Z 1915/2003 12005KT P6SM FEW010 PROB30 1915/1919
BKN009
FM191900 09008KT P6SM BKN012 TEMPO 1919/2003 OVC008
RMK NXT FCST BY 191900Z=
Your time UTC time
Weather data provided by Environment Canada and NAV CANADA